Time;durP1;ratioP1;P1;durP2;ratioP2;P2;SDS_P1;SDS_P2;PMS_P1;PMS_P2;Temp;Humidity;BMP_temperature;BMP_pressure;BME280_temperature;BME280_humidity;BME280_pressure;Samples;Min_cycle;Max_cycle;Signal;HPM_P1;HPM_P2
2024/01/21 00:01:06;;;;;;;6.33;3.30;;;-0.80;99.90;;;;;;4739882;30;20193;-90
2024/01/21 00:03:31;;;;;;;5.17;3.50;;;-0.70;99.90;;;;;;4726795;30;20640;-89
2024/01/21 00:05:57;;;;;;;6.07;2.83;;;-0.70;99.90;;;;;;4752629;30;20192;-90
2024/01/21 00:08:25;;;;;;;4.13;2.67;;;-0.70;99.90;;;;;;4729604;30;20185;-90
2024/01/21 00:10:51;;;;;;;6.17;2.90;;;-0.80;99.90;;;;;;4743218;30;20197;-89
2024/01/21 00:13:16;;;;;;;6.43;3.30;;;-0.80;99.90;;;;;;4751563;30;20200;-91
2024/01/21 00:15:42;;;;;;;6.90;3.00;;;-0.70;99.90;;;;;;4744047;30;20189;-90
2024/01/21 00:18:10;;;;;;;3.97;2.80;;;-0.80;99.90;;;;;;4749996;30;20221;-92
2024/01/21 00:20:36;;;;;;;4.87;2.70;;;-0.80;99.90;;;;;;4735114;30;20776;-91
2024/01/21 00:23:01;;;;;;;5.63;3.33;;;-0.80;99.90;;;;;;4728876;30;20284;-92
2024/01/21 00:25:27;;;;;;;5.00;2.67;;;-0.80;99.90;;;;;;4752085;30;20213;-89
2024/01/21 00:27:53;;;;;;;3.93;2.73;;;-0.80;99.90;;;;;;4750562;30;20665;-90
2024/01/21 00:30:19;;;;;;;4.43;2.40;;;-0.80;99.90;;;;;;4753171;30;20228;-91
2024/01/21 00:32:44;;;;;;;3.50;2.40;;;-0.80;99.90;;;;;;4742331;30;20189;-91
2024/01/21 00:35:11;;;;;;;5.17;2.70;;;-0.70;99.90;;;;;;4739162;30;20223;-91
2024/01/21 00:37:37;;;;;;;5.77;2.70;;;-0.70;99.90;;;;;;4754922;30;20188;-92
2024/01/21 00:40:08;;;;;;;6.30;2.97;;;-0.70;99.90;;;;;;4739210;30;20241;-92
2024/01/21 00:42:35;;;;;;;6.53;2.67;;;-0.70;99.90;;;;;;4755523;30;20184;-93
2024/01/21 00:45:01;;;;;;;3.80;2.40;;;-0.70;99.90;;;;;;4731791;30;20223;-92
2024/01/21 00:47:27;;;;;;;4.47;2.77;;;-0.70;99.90;;;;;;4754654;30;20648;-94
2024/01/21 00:49:53;;;;;;;3.30;2.33;;;-0.70;99.90;;;;;;4735884;30;20231;-92
2024/01/21 00:52:18;;;;;;;2.73;2.10;;;-0.60;99.90;;;;;;4754518;30;20194;-94
2024/01/21 00:54:44;;;;;;;3.73;2.20;;;-0.60;99.90;;;;;;4754987;30;20195;-93
2024/01/21 00:57:10;;;;;;;3.97;2.40;;;-0.60;99.90;;;;;;4738437;30;20194;-91
2024/01/21 00:59:35;;;;;;;3.87;2.13;;;-0.60;99.90;;;;;;4738268;30;20287;-92
2024/01/21 01:02:01;;;;;;;4.80;2.40;;;-0.60;99.90;;;;;;4739009;30;20237;-91
2024/01/21 01:04:27;;;;;;;4.87;2.33;;;-0.60;99.90;;;;;;4751323;30;20268;-91
2024/01/21 01:06:53;;;;;;;4.80;2.10;;;-0.50;99.90;;;;;;4749998;30;20196;-92
2024/01/21 01:09:27;;;;;;;3.77;2.17;;;-0.50;99.90;;;;;;4731311;30;20653;-91
2024/01/21 01:11:52;;;;;;;5.30;2.47;;;-0.50;99.90;;;;;;4754540;30;20247;-92
2024/01/21 01:14:20;;;;;;;3.23;2.00;;;-0.50;99.90;;;;;;4731439;30;20646;-93
2024/01/21 01:16:45;;;;;;;4.37;2.13;;;-0.50;99.90;;;;;;4738531;30;20656;-91
2024/01/21 01:19:11;;;;;;;4.47;2.20;;;-0.60;99.90;;;;;;4728519;30;20193;-92
2024/01/21 01:21:37;;;;;;;3.33;1.97;;;-0.60;99.90;;;;;;4754288;30;20196;-92
2024/01/21 01:24:03;;;;;;;4.30;2.33;;;-0.50;99.90;;;;;;4746892;30;20544;-89
2024/01/21 01:26:29;;;;;;;3.43;2.30;;;-0.50;99.90;;;;;;4754076;30;20196;-91
2024/01/21 01:28:59;;;;;;;3.30;2.20;;;-0.50;99.90;;;;;;4754051;30;20185;-92
2024/01/21 01:31:25;;;;;;;3.80;2.00;;;-0.50;99.90;;;;;;4753916;30;20251;-91
2024/01/21 01:33:51;;;;;;;3.63;2.00;;;-0.50;99.90;;;;;;4753863;30;20188;-90
2024/01/21 01:36:17;;;;;;;2.77;2.10;;;-0.60;99.90;;;;;;4747014;30;20200;-92
2024/01/21 01:38:49;;;;;;;6.33;2.07;;;-0.50;99.90;;;;;;4754323;30;20189;-92
2024/01/21 01:41:15;;;;;;;6.23;2.10;;;-0.50;99.90;;;;;;4738529;30;20207;-92
2024/01/21 01:43:41;;;;;;;3.63;1.93;;;-0.50;99.90;;;;;;4754151;30;20188;-92
2024/01/21 01:46:08;;;;;;;1.73;1.37;;;-0.50;99.90;;;;;;4737445;30;20250;-90
2024/01/21 01:48:33;;;;;;;3.27;1.63;;;-0.50;99.90;;;;;;4734936;30;20525;-91
2024/01/21 01:51:06;;;;;;;5.40;1.77;;;-0.60;99.90;;;;;;4753535;30;20238;-92
2024/01/21 01:53:35;;;;;;;2.93;1.80;;;-0.60;99.90;;;;;;4753841;30;20177;-92
2024/01/21 01:56:01;;;;;;;2.73;1.57;;;-0.60;99.90;;;;;;4738117;30;20239;-91
2024/01/21 01:58:30;;;;;;;2.23;1.47;;;-0.70;99.90;;;;;;4753752;30;20200;-92
2024/01/21 02:00:57;;;;;;;2.50;1.40;;;-0.70;99.90;;;;;;4737909;30;20268;-91
2024/01/21 02:03:24;;;;;;;4.70;1.50;;;-0.70;99.90;;;;;;4739176;30;20196;-91
2024/01/21 02:05:50;;;;;;;3.30;1.43;;;-0.70;99.90;;;;;;4737699;30;20201;-90
2024/01/21 02:08:16;;;;;;;2.53;1.70;;;-0.70;99.90;;;;;;4736625;30;20207;-91
2024/01/21 02:10:43;;;;;;;2.43;1.47;;;-0.70;99.90;;;;;;4733977;30;20222;-91
2024/01/21 02:13:09;;;;;;;2.43;1.57;;;-0.70;99.90;;;;;;4749749;30;20192;-91
2024/01/21 02:15:35;;;;;;;2.70;1.40;;;-0.70;99.90;;;;;;4757159;30;20185;-91
2024/01/21 02:18:00;;;;;;;3.17;1.70;;;-0.70;99.90;;;;;;4738854;30;20655;-90
2024/01/21 02:20:34;;;;;;;2.53;1.33;;;-0.80;99.90;;;;;;4740347;30;20637;-88
2024/01/21 02:23:00;;;;;;;3.73;1.60;;;-0.80;99.90;;;;;;4757099;30;20185;-92
2024/01/21 02:25:26;;;;;;;2.10;1.40;;;-0.80;99.90;;;;;;4754453;30;20236;-91
2024/01/21 02:27:51;;;;;;;3.90;1.77;;;-0.80;99.90;;;;;;4736164;30;20215;-91
2024/01/21 02:30:17;;;;;;;7.60;1.70;;;-0.80;99.90;;;;;;4725791;30;20235;-91
2024/01/21 02:32:43;;;;;;;2.60;1.57;;;-0.90;99.90;;;;;;4733321;30;20200;-92
2024/01/21 02:35:08;;;;;;;2.23;1.40;;;-0.90;99.90;;;;;;4756552;30;20180;-91
2024/01/21 02:37:34;;;;;;;1.97;1.30;;;-0.90;99.90;;;;;;4749750;30;20187;-91
2024/01/21 02:40:04;;;;;;;3.00;1.50;;;-1.00;99.90;;;;;;4741193;30;20200;-91
2024/01/21 02:42:30;;;;;;;2.30;1.33;;;-1.00;99.90;;;;;;4733570;30;20672;-91
2024/01/21 02:44:56;;;;;;;4.53;1.50;;;-1.00;99.90;;;;;;4741078;30;20225;-91
2024/01/21 02:47:24;;;;;;;3.83;1.50;;;-1.00;99.90;;;;;;4733697;30;20338;-91
2024/01/21 02:49:50;;;;;;;1.70;1.20;;;-1.00;99.90;;;;;;4748273;30;20189;-90
2024/01/21 02:52:15;;;;;;;2.47;1.37;;;-1.00;99.90;;;;;;4754750;30;20207;-91
2024/01/21 02:54:41;;;;;;;2.90;1.43;;;-1.00;99.90;;;;;;4756627;30;20188;-91
2024/01/21 02:57:07;;;;;;;3.77;1.43;;;-1.10;99.90;;;;;;4748961;30;20191;-90
2024/01/21 03:02:14;;;;;;;2.57;1.17;;;-1.10;99.90;;;;;;4991143;24;20243;-91
2024/01/21 03:04:40;;;;;;;6.63;1.37;;;-1.20;99.90;;;;;;4757960;30;20260;-91
2024/01/21 03:07:05;;;;;;;1.90;1.20;;;-1.20;99.90;;;;;;4750937;30;20286;-91
2024/01/21 03:09:31;;;;;;;1.90;1.13;;;-1.20;99.90;;;;;;4740212;30;20197;-92
2024/01/21 03:11:59;;;;;;;1.97;1.20;;;-1.20;99.90;;;;;;4740562;30;20697;-92
2024/01/21 03:14:24;;;;;;;1.43;1.10;;;-1.20;99.90;;;;;;4740253;30;20219;-91
2024/01/21 03:16:50;;;;;;;1.73;1.20;;;-1.30;99.90;;;;;;4739905;30;20617;-91
2024/01/21 03:19:16;;;;;;;1.80;1.10;;;-1.20;99.90;;;;;;4755925;30;20205;-91
2024/01/21 03:21:41;;;;;;;1.60;1.07;;;-1.20;99.90;;;;;;4750567;30;20266;-92
2024/01/21 03:24:07;;;;;;;1.20;1.00;;;-1.20;99.90;;;;;;4773389;30;20207;-92
2024/01/21 03:26:33;;;;;;;1.57;1.00;;;-1.30;99.90;;;;;;4746964;30;20208;-92
2024/01/21 03:28:59;;;;;;;2.13;0.97;;;-1.30;99.90;;;;;;4769460;30;20624;-91
2024/01/21 03:31:25;;;;;;;0.90;0.83;;;-1.40;99.90;;;;;;4753352;30;20239;-91
2024/01/21 03:33:57;;;;;;;1.30;0.90;;;-1.40;99.90;;;;;;4752395;30;20589;-91
2024/01/21 03:36:23;;;;;;;1.17;0.90;;;-1.40;99.90;;;;;;4756490;30;20200;-92
2024/01/21 03:38:50;;;;;;;3.00;1.00;;;-1.40;99.90;;;;;;4744953;30;20258;-92
2024/01/21 03:41:17;;;;;;;1.60;0.90;;;-1.30;99.90;;;;;;4755515;30;20203;-92
2024/01/21 03:43:44;;;;;;;2.23;1.20;;;-1.40;99.90;;;;;;4745515;30;20224;-92
2024/01/21 03:46:09;;;;;;;1.30;0.87;;;-1.40;99.90;;;;;;4746783;30;20212;-92
2024/01/21 03:48:35;;;;;;;1.47;1.07;;;-1.40;99.90;;;;;;4739902;30;20200;-92
2024/01/21 03:51:01;;;;;;;1.37;1.00;;;-1.40;99.90;;;;;;4753013;30;20563;-91
2024/01/21 03:53:29;;;;;;;1.03;0.80;;;-1.50;99.90;;;;;;4772877;30;20224;-92
2024/01/21 03:55:55;;;;;;;1.33;1.00;;;-1.40;99.90;;;;;;4757127;30;21075;-92
2024/01/21 03:58:20;;;;;;;1.83;0.90;;;-1.50;99.90;;;;;;4755527;30;20196;-92
2024/01/21 04:00:46;;;;;;;1.30;0.90;;;-1.40;99.90;;;;;;4739301;30;20672;-92
2024/01/21 04:03:14;;;;;;;1.23;0.70;;;-1.40;99.90;;;;;;4747362;30;20220;-92
2024/01/21 04:05:39;;;;;;;1.97;0.90;;;-1.40;99.90;;;;;;4772720;30;20224;-92
2024/01/21 04:08:06;;;;;;;1.60;1.03;;;-1.40;99.90;;;;;;4756807;30;20196;-92
2024/01/21 04:10:31;;;;;;;1.40;0.83;;;-1.50;99.90;;;;;;4757158;30;20291;-92
2024/01/21 04:12:58;;;;;;;1.47;0.87;;;-1.50;99.90;;;;;;4757238;30;20215;-92
2024/01/21 04:15:24;;;;;;;1.53;1.10;;;-1.50;99.90;;;;;;4747727;30;20362;-91
2024/01/21 04:17:50;;;;;;;1.30;0.80;;;-1.40;99.90;;;;;;4739274;30;20692;-92
2024/01/21 04:20:15;;;;;;;1.53;0.90;;;-1.50;99.90;;;;;;4755241;30;20200;-92
2024/01/21 04:22:42;;;;;;;1.43;1.00;;;-1.60;99.90;;;;;;4750773;30;20207;-92
2024/01/21 04:25:08;;;;;;;1.50;1.00;;;-1.60;99.90;;;;;;4756632;30;20227;-90
2024/01/21 04:27:33;;;;;;;1.43;0.87;;;-1.70;99.90;;;;;;4756657;30;20214;-92
2024/01/21 04:29:59;;;;;;;0.90;0.80;;;-1.70;99.90;;;;;;4756527;30;20703;-93
2024/01/21 04:32:26;;;;;;;1.10;0.80;;;-1.70;99.90;;;;;;4752522;30;20277;-92
2024/01/21 04:34:52;;;;;;;0.90;0.70;;;-1.70;99.90;;;;;;4756959;30;20204;-92
2024/01/21 04:37:18;;;;;;;1.90;0.90;;;-1.80;99.90;;;;;;4747801;30;20197;-93
2024/01/21 04:39:44;;;;;;;1.60;0.90;;;-1.80;99.90;;;;;;4743254;30;20203;-92
2024/01/21 04:42:09;;;;;;;1.30;0.90;;;-1.80;99.90;;;;;;4756422;30;20203;-92
2024/01/21 04:44:48;;;;;;;1.90;0.83;;;-1.70;99.90;;;;;;4772509;30;20361;-92
2024/01/21 04:47:14;;;;;;;0.87;0.80;;;-1.80;99.90;;;;;;4755241;30;20206;-92
2024/01/21 04:49:39;;;;;;;1.67;0.80;;;-1.80;99.90;;;;;;4765587;30;20192;-92
2024/01/21 04:52:05;;;;;;;1.27;0.83;;;-1.70;99.90;;;;;;4756439;30;20270;-91
2024/01/21 04:54:33;;;;;;;1.10;0.83;;;-1.70;99.90;;;;;;4756212;30;20195;-92
2024/01/21 04:56:59;;;;;;;1.90;1.00;;;-1.60;99.90;;;;;;4756121;30;20204;-92
2024/01/21 04:59:24;;;;;;;3.13;1.00;;;-1.50;99.90;;;;;;4756255;30;20199;-91
2024/01/21 05:01:50;;;;;;;2.57;0.97;;;-1.40;99.90;;;;;;4767830;30;20323;-91
2024/01/21 05:04:17;;;;;;;1.77;1.10;;;-1.50;99.90;;;;;;4756165;30;20247;-91
2024/01/21 05:06:43;;;;;;;0.93;0.80;;;-1.50;99.90;;;;;;4756091;30;20199;-91
2024/01/21 05:09:10;;;;;;;1.50;0.90;;;-1.50;99.90;;;;;;4756064;30;20211;-91
2024/01/21 05:11:37;;;;;;;2.20;0.90;;;-1.50;99.90;;;;;;4745723;30;20242;-91
2024/01/21 05:14:04;;;;;;;1.57;1.10;;;-1.60;99.90;;;;;;4737846;30;20260;-91
2024/01/21 05:16:30;;;;;;;2.00;0.90;;;-1.50;99.90;;;;;;4761077;30;20188;-91
2024/01/21 05:18:56;;;;;;;1.27;0.90;;;-1.50;99.90;;;;;;4761509;30;20204;-91
2024/01/21 05:21:22;;;;;;;2.00;1.00;;;-1.50;99.90;;;;;;4747824;30;20200;-92
2024/01/21 05:23:53;;;;;;;2.07;0.83;;;-1.50;99.90;;;;;;4756163;30;20200;-91
2024/01/21 05:26:18;;;;;;;1.20;0.80;;;-1.40;99.90;;;;;;4756066;30;20632;-92
2024/01/21 05:28:47;;;;;;;0.83;0.80;;;-1.30;99.90;;;;;;4744392;30;20252;-91
2024/01/21 05:31:13;;;;;;;1.33;0.90;;;-1.20;99.90;;;;;;4749737;30;20686;-91
2024/01/21 05:33:46;;;;;;;1.13;0.93;;;-1.20;99.90;;;;;;4755665;30;20200;-92
2024/01/21 05:36:12;;;;;;;1.10;0.90;;;-1.30;99.90;;;;;;4755182;30;20200;-91
2024/01/21 05:38:38;;;;;;;1.50;0.93;;;-1.30;99.90;;;;;;4755900;30;21206;-91
2024/01/21 05:41:04;;;;;;;1.43;1.00;;;-1.40;99.90;;;;;;4751426;30;20211;-91
2024/01/21 05:43:32;;;;;;;1.17;0.80;;;-1.40;99.90;;;;;;4771317;30;20196;-91
2024/01/21 05:45:58;;;;;;;1.57;0.77;;;-1.40;99.90;;;;;;4774078;30;20491;-92
2024/01/21 05:48:23;;;;;;;1.80;0.87;;;-1.40;99.90;;;;;;4758299;30;20206;-91
2024/01/21 05:50:49;;;;;;;1.23;1.03;;;-1.40;99.90;;;;;;4753685;30;20208;-92
2024/01/21 05:53:16;;;;;;;2.63;1.10;;;-1.40;99.90;;;;;;4749344;30;20230;-91
2024/01/21 05:55:42;;;;;;;1.10;0.83;;;-1.30;99.90;;;;;;4751749;30;20195;-91
2024/01/21 05:58:08;;;;;;;1.03;0.90;;;-1.30;99.90;;;;;;4759151;30;20269;-91
2024/01/21 06:00:33;;;;;;;1.07;0.80;;;-1.30;99.90;;;;;;4759031;30;20235;-91
2024/01/21 06:02:59;;;;;;;2.80;1.00;;;-1.30;99.90;;;;;;4754911;30;20208;-91
2024/01/21 06:05:27;;;;;;;1.77;1.10;;;-1.30;99.90;;;;;;4758860;30;20231;-90
2024/01/21 06:07:52;;;;;;;2.33;1.00;;;-1.30;99.90;;;;;;4758903;30;20223;-91
2024/01/21 06:10:18;;;;;;;2.07;1.20;;;-1.40;99.90;;;;;;4743132;30;20231;-91
2024/01/21 06:12:44;;;;;;;1.90;1.03;;;-1.50;99.90;;;;;;4745722;30;20274;-91
2024/01/21 06:15:12;;;;;;;1.63;1.13;;;-1.50;99.90;;;;;;4758863;30;20200;-92
2024/01/21 06:17:37;;;;;;;1.27;0.90;;;-1.50;99.90;;;;;;4755287;30;20200;-91
2024/01/21 06:20:03;;;;;;;1.27;0.90;;;-1.50;99.90;;;;;;4771227;30;20203;-91
2024/01/21 06:22:29;;;;;;;2.47;1.10;;;-1.50;99.90;;;;;;4751603;30;20204;-91
2024/01/21 06:25:04;;;;;;;1.90;1.13;;;-1.50;99.90;;;;;;4774524;30;20687;-91
2024/01/21 06:27:30;;;;;;;1.97;1.00;;;-1.50;99.90;;;;;;4774720;30;20192;-91
2024/01/21 06:29:56;;;;;;;2.00;1.10;;;-1.50;99.90;;;;;;4758503;30;20508;-91
2024/01/21 06:32:22;;;;;;;2.00;1.13;;;-1.50;99.90;;;;;;4770444;30;20203;-91
2024/01/21 06:34:49;;;;;;;2.57;1.20;;;-1.50;99.90;;;;;;4753840;30;20645;-91
2024/01/21 06:37:15;;;;;;;3.10;1.10;;;-1.50;99.90;;;;;;4756435;30;20538;-91
2024/01/21 06:39:41;;;;;;;1.30;1.10;;;-1.50;99.90;;;;;;4758324;30;20348;-91
2024/01/21 06:42:06;;;;;;;2.60;1.20;;;-1.50;99.90;;;;;;4758518;30;20200;-91
2024/01/21 06:44:35;;;;;;;2.20;1.30;;;-1.30;99.90;;;;;;4758322;30;20549;-91
2024/01/21 06:47:00;;;;;;;1.87;1.17;;;-1.30;99.90;;;;;;4758629;30;20196;-91
2024/01/21 06:49:26;;;;;;;1.30;0.97;;;-1.40;99.90;;;;;;4758637;30;20194;-91
2024/01/21 06:51:54;;;;;;;2.00;1.30;;;-1.50;99.90;;;;;;4758579;30;20222;-91
2024/01/21 06:54:29;;;;;;;3.33;1.30;;;-1.50;99.90;;;;;;4758317;30;20210;-90
2024/01/21 06:56:55;;;;;;;2.87;1.70;;;-1.60;99.90;;;;;;4774132;30;20200;-91
2024/01/21 06:59:20;;;;;;;2.90;1.40;;;-1.70;99.90;;;;;;4758107;30;20196;-91
2024/01/21 07:01:46;;;;;;;3.33;1.50;;;-1.70;99.90;;;;;;4769623;30;20573;-92
2024/01/21 07:04:26;;;;;;;2.83;1.23;;;-1.70;99.90;;;;;;4758033;30;20555;-91
2024/01/21 07:06:52;;;;;;;1.57;1.13;;;-1.70;99.90;;;;;;4750750;30;20204;-91
2024/01/21 07:09:18;;;;;;;1.80;1.30;;;-1.70;99.90;;;;;;4773808;30;20191;-91
2024/01/21 07:11:44;;;;;;;3.50;1.53;;;-1.70;99.90;;;;;;4758185;30;20196;-91
2024/01/21 07:14:16;;;;;;;3.20;1.70;;;-1.70;99.90;;;;;;4773897;30;20191;-91
2024/01/21 07:16:42;;;;;;;2.67;1.50;;;-1.70;99.90;;;;;;4757778;30;20196;-91
2024/01/21 07:19:08;;;;;;;4.37;1.60;;;-1.80;99.90;;;;;;4757736;30;20203;-91
2024/01/21 07:21:33;;;;;;;3.07;1.77;;;-1.80;99.90;;;;;;4757927;30;20199;-91
2024/01/21 07:24:00;;;;;;;2.57;1.40;;;-1.80;99.90;;;;;;4767373;30;20213;-91
2024/01/21 07:26:27;;;;;;;4.20;1.40;;;-1.80;99.90;;;;;;4757122;30;20279;-91
2024/01/21 07:28:53;;;;;;;2.70;1.50;;;-1.80;99.90;;;;;;4748764;30;20303;-91
2024/01/21 07:31:19;;;;;;;2.33;1.40;;;-1.70;99.90;;;;;;4760127;30;20636;-91
2024/01/21 07:33:45;;;;;;;2.87;1.70;;;-1.70;99.90;;;;;;4749111;30;20295;-92
2024/01/21 07:36:11;;;;;;;2.00;1.50;;;-1.70;99.90;;;;;;4745515;30;20193;-91
2024/01/21 07:38:37;;;;;;;4.13;1.40;;;-1.70;99.90;;;;;;4761192;30;20248;-89
2024/01/21 07:41:03;;;;;;;1.67;1.43;;;-1.60;99.90;;;;;;4738716;30;20424;-92
2024/01/21 07:43:30;;;;;;;2.47;1.77;;;-1.60;99.90;;;;;;4745005;30;20200;-92
2024/01/21 07:46:01;;;;;;;3.43;2.20;;;-1.60;99.90;;;;;;4738392;30;20563;-92
2024/01/21 07:48:27;;;;;;;1.30;1.10;;;-1.50;99.90;;;;;;4742361;30;20189;-92
2024/01/21 07:50:53;;;;;;;1.50;1.10;;;-1.40;99.90;;;;;;4749721;30;20199;-91
2024/01/21 07:53:22;;;;;;;2.63;1.50;;;-1.20;99.90;;;;;;4744708;30;20192;-91
2024/01/21 07:55:55;;;;;;;1.87;1.13;;;-1.20;99.90;;;;;;4739741;30;20645;-91
2024/01/21 07:58:21;;;;;;;1.97;1.00;;;-1.10;99.90;;;;;;4738872;30;20239;-90
2024/01/21 08:00:47;;;;;;;1.97;1.07;;;-0.70;99.90;;;;;;4745013;30;20263;-90
2024/01/21 08:03:13;;;;;;;1.23;0.97;;;-0.10;99.90;;;;;;4736750;30;20280;-87
2024/01/21 08:05:39;;;;;;;1.40;0.80;;;0.60;98.70;;;;;;4740758;30;20234;-87
2024/01/21 08:08:04;;;;;;;1.83;1.03;;;1.10;95.20;;;;;;4743333;30;20922;-88
2024/01/21 08:10:30;;;;;;;1.33;0.90;;;1.40;95.70;;;;;;4736606;30;20719;-87
2024/01/21 08:12:56;;;;;;;1.60;1.00;;;1.50;94.60;;;;;;4741766;30;20227;-86
2024/01/21 08:15:22;;;;;;;5.10;1.13;;;1.60;94.00;;;;;;4745224;30;20633;-86
2024/01/21 08:17:48;;;;;;;1.80;0.90;;;1.70;95.50;;;;;;4772042;30;20199;-87
2024/01/21 08:20:14;;;;;;;1.50;0.90;;;1.70;93.80;;;;;;4756621;30;20195;-87
2024/01/21 08:22:40;;;;;;;3.87;0.90;;;1.90;92.70;;;;;;4756552;30;20234;-87
2024/01/21 08:25:06;;;;;;;0.80;0.70;;;2.00;93.30;;;;;;4756163;30;20219;-86
2024/01/21 08:27:32;;;;;;;1.20;0.80;;;2.10;93.00;;;;;;4756230;30;20192;-86
2024/01/21 08:29:57;;;;;;;1.10;0.80;;;2.10;92.90;;;;;;4756468;30;20192;-87
2024/01/21 08:32:23;;;;;;;1.47;0.90;;;2.20;92.40;;;;;;4752099;30;20261;-87
2024/01/21 08:34:50;;;;;;;1.53;0.73;;;2.30;93.30;;;;;;4756444;30;20283;-87
2024/01/21 08:37:15;;;;;;;1.23;0.80;;;2.30;92.80;;;;;;4756270;30;20192;-86
2024/01/21 08:39:42;;;;;;;2.53;0.90;;;2.40;92.40;;;;;;4756296;30;20256;-86
2024/01/21 08:42:07;;;;;;;2.23;0.87;;;2.50;90.90;;;;;;4756197;30;20264;-86
2024/01/21 08:44:35;;;;;;;1.97;1.00;;;2.70;91.00;;;;;;4741736;30;20655;-88
2024/01/21 08:47:02;;;;;;;1.23;0.70;;;2.80;90.30;;;;;;4755955;30;20294;-87
2024/01/21 08:49:28;;;;;;;0.90;0.60;;;2.80;91.80;;;;;;4753712;30;20200;-89
2024/01/21 08:51:53;;;;;;;2.63;0.97;;;2.80;91.00;;;;;;4751125;30;20206;-86
2024/01/21 08:54:19;;;;;;;2.83;0.97;;;2.90;90.20;;;;;;4758163;30;20227;-85
2024/01/21 08:56:45;;;;;;;2.13;0.87;;;3.00;91.30;;;;;;4741431;30;20191;-84
2024/01/21 08:59:11;;;;;;;2.60;0.90;;;2.90;91.50;;;;;;4755516;30;20192;-86
2024/01/21 09:01:36;;;;;;;1.70;0.90;;;3.00;91.40;;;;;;4739388;30;20244;-87
2024/01/21 09:04:02;;;;;;;2.07;0.80;;;2.90;92.10;;;;;;4739980;30;20204;-84
2024/01/21 09:06:29;;;;;;;2.07;0.83;;;2.90;91.20;;;;;;4739338;30;20210;-84
2024/01/21 09:08:56;;;;;;;3.57;0.70;;;3.00;91.30;;;;;;4739792;30;20216;-86
2024/01/21 09:11:23;;;;;;;3.40;0.90;;;2.90;91.10;;;;;;4736805;30;20573;-85
2024/01/21 09:13:49;;;;;;;1.83;0.60;;;3.00;90.80;;;;;;4751664;30;20196;-84
2024/01/21 09:16:21;;;;;;;1.03;0.63;;;3.10;90.90;;;;;;4739094;30;20195;-85
2024/01/21 09:18:47;;;;;;;1.77;0.77;;;3.10;90.00;;;;;;4736898;30;20215;-84
2024/01/21 09:21:13;;;;;;;1.83;0.83;;;3.20;89.60;;;;;;4736284;30;20273;-85
2024/01/21 09:23:38;;;;;;;3.47;0.87;;;3.30;89.40;;;;;;4736140;30;20287;-84
2024/01/21 09:26:04;;;;;;;1.50;0.80;;;3.30;90.00;;;;;;4736131;30;20318;-84
2024/01/21 09:28:30;;;;;;;5.17;0.80;;;3.30;90.00;;;;;;4731757;30;20198;-85
2024/01/21 09:30:55;;;;;;;3.60;0.80;;;3.30;89.70;;;;;;4739378;30;20200;-85
2024/01/21 09:33:21;;;;;;;0.83;0.70;;;3.30;88.50;;;;;;4755630;30;20196;-84
2024/01/21 09:35:50;;;;;;;1.73;0.90;;;3.40;90.70;;;;;;4738177;30;20280;-85
2024/01/21 09:38:18;;;;;;;1.60;0.87;;;3.30;90.20;;;;;;4742254;30;20203;-85
2024/01/21 09:40:49;;;;;;;3.93;1.10;;;3.40;89.30;;;;;;4738745;30;20196;-85
2024/01/21 09:43:15;;;;;;;3.87;1.47;;;3.40;88.60;;;;;;4741129;30;20632;-85
2024/01/21 09:45:43;;;;;;;7.40;2.17;;;3.50;88.30;;;;;;4741273;30;20237;-89
2024/01/21 09:48:11;;;;;;;7.30;1.07;;;3.60;88.20;;;;;;4736055;30;20524;-85
2024/01/21 09:50:38;;;;;;;1.30;0.83;;;3.50;90.00;;;;;;4742115;30;20277;-86
2024/01/21 09:53:04;;;;;;;5.10;0.80;;;3.60;88.20;;;;;;4739782;30;20192;-84
2024/01/21 09:55:31;;;;;;;4.37;1.20;;;3.60;90.40;;;;;;4735996;30;20199;-85
2024/01/21 09:58:01;;;;;;;3.43;1.30;;;3.50;90.90;;;;;;4756097;30;20191;-85
2024/01/21 10:00:27;;;;;;;6.70;2.63;;;3.40;90.00;;;;;;4754726;30;20197;-85
2024/01/21 10:02:53;;;;;;;8.57;1.20;;;3.40;89.40;;;;;;4735917;30;20224;-84
2024/01/21 10:05:20;;;;;;;7.43;1.40;;;3.40;90.50;;;;;;4751319;30;20740;-85
2024/01/21 10:07:46;;;;;;;6.03;1.73;;;3.60;89.90;;;;;;4757458;30;20703;-85
2024/01/21 10:10:12;;;;;;;3.93;1.70;;;3.50;90.20;;;;;;4740746;30;20539;-87
2024/01/21 10:12:38;;;;;;;9.57;1.50;;;3.50;90.40;;;;;;4754758;30;20267;-84
2024/01/21 10:15:04;;;;;;;4.60;1.47;;;3.60;90.70;;;;;;4753792;30;20288;-85
2024/01/21 10:17:29;;;;;;;6.33;1.87;;;3.50;90.50;;;;;;4740208;30;20191;-85
2024/01/21 10:19:57;;;;;;;6.13;1.63;;;3.60;90.50;;;;;;4739117;30;20193;-83
2024/01/21 10:22:25;;;;;;;4.23;1.80;;;3.60;90.80;;;;;;4735894;30;20225;-85
2024/01/21 10:24:51;;;;;;;9.57;1.70;;;3.50;91.70;;;;;;4751872;30;20220;-84
2024/01/21 10:27:17;;;;;;;5.50;1.83;;;3.60;90.50;;;;;;4758462;30;20192;-84
2024/01/21 10:29:45;;;;;;;4.00;1.80;;;3.50;91.20;;;;;;4739099;30;20205;-83
2024/01/21 10:32:12;;;;;;;6.63;1.70;;;3.40;92.30;;;;;;4738900;30;20196;-83
2024/01/21 10:34:40;;;;;;;5.93;2.13;;;3.40;92.70;;;;;;4758879;30;20274;-83
2024/01/21 10:37:07;;;;;;;9.87;2.37;;;3.50;92.10;;;;;;4738697;30;20260;-85
2024/01/21 10:39:36;;;;;;;4.87;2.20;;;3.50;92.30;;;;;;4747512;30;20195;-84
2024/01/21 10:42:02;;;;;;;9.63;2.10;;;3.50;92.30;;;;;;4746988;30;20639;-82
2024/01/21 10:44:28;;;;;;;10.93;1.80;;;3.50;92.40;;;;;;4757025;30;20227;-85
2024/01/21 10:46:56;;;;;;;10.30;2.30;;;3.50;92.00;;;;;;4772830;30;20608;-82
2024/01/21 10:49:22;;;;;;;8.17;2.23;;;3.50;92.00;;;;;;4771283;30;20693;-85
2024/01/21 10:51:52;;;;;;;4.83;2.00;;;3.50;92.00;;;;;;4751021;30;20196;-83
2024/01/21 10:54:18;;;;;;;5.27;1.93;;;3.50;92.10;;;;;;4755602;30;20231;-85
2024/01/21 10:56:43;;;;;;;6.17;2.00;;;3.40;92.40;;;;;;4757013;30;20228;-85
2024/01/21 10:59:12;;;;;;;4.07;1.90;;;3.40;92.70;;;;;;4772352;30;20200;-86
2024/01/21 11:01:42;;;;;;;5.13;2.07;;;3.30;93.10;;;;;;4756490;30;20263;-84
2024/01/21 11:04:12;;;;;;;3.80;1.97;;;3.30;92.80;;;;;;4749242;30;20209;-85
2024/01/21 11:06:44;;;;;;;8.80;2.30;;;3.30;92.90;;;;;;4769906;30;20195;-84
2024/01/21 11:09:10;;;;;;;7.17;2.30;;;3.30;94.00;;;;;;4749448;30;20236;-83
2024/01/21 11:12:05;;;;;;;6.53;1.90;;;3.20;93.20;;;;;;4772664;30;20192;-84
2024/01/21 11:14:35;;;;;;;5.10;2.17;;;3.30;93.00;;;;;;4740123;30;20636;-85
2024/01/21 11:17:06;;;;;;;6.97;1.97;;;3.30;92.90;;;;;;4772781;30;20638;-84
2024/01/21 11:19:41;;;;;;;4.40;2.03;;;3.30;92.90;;;;;;4755889;30;20300;-84
2024/01/21 11:22:11;;;;;;;6.77;2.13;;;3.30;93.90;;;;;;4756606;30;20539;-85
2024/01/21 11:24:37;;;;;;;3.87;2.00;;;3.20;94.10;;;;;;4746785;30;20224;-83
2024/01/21 11:27:04;;;;;;;6.50;2.30;;;3.20;94.00;;;;;;4741153;30;20200;-84
2024/01/21 11:29:31;;;;;;;4.33;2.10;;;3.20;93.50;;;;;;4732106;30;20671;-83
2024/01/21 11:32:03;;;;;;;3.33;1.93;;;3.30;93.90;;;;;;4732270;30;20197;-84
2024/01/21 11:34:31;;;;;;;2.90;1.77;;;3.30;94.20;;;;;;4765897;30;20228;-84
2024/01/21 11:36:58;;;;;;;3.17;1.73;;;3.30;93.90;;;;;;4768588;30;20280;-83
2024/01/21 11:39:24;;;;;;;4.97;1.93;;;3.20;95.30;;;;;;4754001;30;20208;-85
2024/01/21 11:41:50;;;;;;;10.67;2.37;;;3.20;94.30;;;;;;4754870;30;20200;-87
2024/01/21 11:44:21;;;;;;;5.60;2.10;;;3.20;94.50;;;;;;4755074;30;20269;-83
2024/01/21 11:46:50;;;;;;;4.20;1.80;;;3.20;93.90;;;;;;4756196;30;20535;-86
2024/01/21 11:49:16;;;;;;;3.50;2.30;;;3.20;94.40;;;;;;4771891;30;20192;-86
2024/01/21 11:51:44;;;;;;;6.07;1.93;;;3.20;94.20;;;;;;4750778;30;20203;-90
2024/01/21 11:54:10;;;;;;;6.00;2.30;;;3.20;94.90;;;;;;4748610;30;20231;-90
2024/01/21 11:56:37;;;;;;;4.03;1.90;;;3.20;94.50;;;;;;4765965;30;20633;-86
2024/01/21 11:59:06;;;;;;;4.37;2.50;;;3.20;94.80;;;;;;4768701;30;20220;-86
2024/01/21 12:01:36;;;;;;;8.93;2.43;;;3.10;95.50;;;;;;4771841;30;20321;-89
2024/01/21 12:04:03;;;;;;;3.07;2.17;;;3.20;93.90;;;;;;4772425;30;20196;-85
2024/01/21 12:06:56;;;;;;;4.97;2.30;;;3.20;94.60;;;;;;4772441;30;20695;-85
2024/01/21 12:09:22;;;;;;;5.17;2.33;;;3.20;95.40;;;;;;4766804;30;20652;-86
2024/01/21 12:11:52;;;;;;;5.67;2.60;;;3.20;95.60;;;;;;4750653;30;20632;-87
2024/01/21 12:14:20;;;;;;;5.33;2.53;;;3.20;95.80;;;;;;4772414;30;20203;-86
2024/01/21 12:16:51;;;;;;;4.23;2.40;;;3.30;94.60;;;;;;4748099;30;20234;-86
2024/01/21 12:19:17;;;;;;;4.57;2.40;;;3.40;95.00;;;;;;4764740;30;20196;-84
2024/01/21 12:21:44;;;;;;;3.80;2.30;;;3.30;95.10;;;;;;4739441;30;20280;-86
2024/01/21 12:24:10;;;;;;;10.20;2.97;;;3.40;95.20;;;;;;4752992;30;20220;-88
2024/01/21 12:26:35;;;;;;;5.50;2.60;;;3.40;96.00;;;;;;4772212;30;20199;-88
2024/01/21 12:29:06;;;;;;;5.97;2.70;;;3.30;95.90;;;;;;4756241;30;20229;-86
2024/01/21 12:31:39;;;;;;;21.00;3.30;;;3.40;95.30;;;;;;4755317;30;20199;-84
2024/01/21 12:34:07;;;;;;;5.73;2.60;;;3.30;96.10;;;;;;4738550;30;20211;-85
2024/01/21 12:36:34;;;;;;;6.17;3.03;;;3.30;95.60;;;;;;4752587;30;20193;-85
2024/01/21 12:39:06;;;;;;;6.90;3.53;;;3.20;96.70;;;;;;4750516;30;20547;-89
2024/01/21 12:41:35;;;;;;;5.37;2.77;;;3.20;97.40;;;;;;4771418;30;20253;-86
2024/01/21 12:44:02;;;;;;;11.83;3.47;;;3.30;97.10;;;;;;4741272;30;20213;-84
2024/01/21 12:46:28;;;;;;;4.83;2.90;;;3.30;97.70;;;;;;4754091;30;20277;-84
2024/01/21 12:48:53;;;;;;;5.80;2.90;;;3.30;97.50;;;;;;4754702;30;20191;-83
2024/01/21 12:51:20;;;;;;;4.33;2.80;;;3.30;98.00;;;;;;4770507;30;20632;-87